sensor_id;sensor_type;location;lat;lon;timestamp;temperature;humidity
8856;DHT22;4464;50.882;4.730;2022-11-20T00:01:24;4.20;99.90
8856;DHT22;4464;50.882;4.730;2022-11-20T00:03:52;4.00;99.90
8856;DHT22;4464;50.882;4.730;2022-11-20T00:06:20;3.90;99.90
8856;DHT22;4464;50.882;4.730;2022-11-20T00:08:46;3.90;99.90
8856;DHT22;4464;50.882;4.730;2022-11-20T00:11:16;3.90;99.90
8856;DHT22;4464;50.882;4.730;2022-11-20T00:13:43;3.90;99.90
8856;DHT22;4464;50.882;4.730;2022-11-20T00:16:16;3.80;99.90
8856;DHT22;4464;50.882;4.730;2022-11-20T00:18:45;3.80;99.90
8856;DHT22;4464;50.882;4.730;2022-11-20T00:21:23;3.80;99.90
8856;DHT22;4464;50.882;4.730;2022-11-20T00:23:54;3.90;99.90
8856;DHT22;4464;50.882;4.730;2022-11-20T00:26:23;4.10;99.90
8856;DHT22;4464;50.882;4.730;2022-11-20T00:28:54;4.10;99.90
8856;DHT22;4464;50.882;4.730;2022-11-20T00:31:24;4.20;99.90
8856;DHT22;4464;50.882;4.730;2022-11-20T00:33:53;4.20;99.90
8856;DHT22;4464;50.882;4.730;2022-11-20T00:36:39;4.30;99.90
8856;DHT22;4464;50.882;4.730;2022-11-20T00:39:07;4.30;99.90
8856;DHT22;4464;50.882;4.730;2022-11-20T00:41:36;4.30;99.90
8856;DHT22;4464;50.882;4.730;2022-11-20T00:44:03;4.30;99.90
8856;DHT22;4464;50.882;4.730;2022-11-20T00:46:28;4.40;99.90
8856;DHT22;4464;50.882;4.730;2022-11-20T00:48:57;4.20;99.90
8856;DHT22;4464;50.882;4.730;2022-11-20T00:51:24;4.00;99.90
8856;DHT22;4464;50.882;4.730;2022-11-20T00:53:56;4.00;99.90
8856;DHT22;4464;50.882;4.730;2022-11-20T00:56:22;4.20;99.90
8856;DHT22;4464;50.882;4.730;2022-11-20T00:58:50;4.40;99.90
8856;DHT22;4464;50.882;4.730;2022-11-20T01:01:19;4.40;99.90
8856;DHT22;4464;50.882;4.730;2022-11-20T01:03:48;4.50;99.90
8856;DHT22;4464;50.882;4.730;2022-11-20T01:06:20;4.60;99.90
8856;DHT22;4464;50.882;4.730;2022-11-20T01:08:49;4.60;99.90
8856;DHT22;4464;50.882;4.730;2022-11-20T01:11:22;4.60;99.90
8856;DHT22;4464;50.882;4.730;2022-11-20T01:13:49;4.60;99.90
8856;DHT22;4464;50.882;4.730;2022-11-20T01:18:45;4.60;99.90
8856;DHT22;4464;50.882;4.730;2022-11-20T01:21:14;4.50;99.90
8856;DHT22;4464;50.882;4.730;2022-11-20T01:23:44;4.40;99.90
8856;DHT22;4464;50.882;4.730;2022-11-20T01:26:16;4.50;99.90
8856;DHT22;4464;50.882;4.730;2022-11-20T01:28:45;4.40;99.90
8856;DHT22;4464;50.882;4.730;2022-11-20T01:31:23;4.50;99.90
8856;DHT22;4464;50.882;4.730;2022-11-20T01:33:55;4.50;99.90
8856;DHT22;4464;50.882;4.730;2022-11-20T01:36:22;4.70;99.90
8856;DHT22;4464;50.882;4.730;2022-11-20T01:38:52;4.70;99.90
8856;DHT22;4464;50.882;4.730;2022-11-20T01:41:18;4.50;99.90
8856;DHT22;4464;50.882;4.730;2022-11-20T01:44:03;4.40;99.90
8856;DHT22;4464;50.882;4.730;2022-11-20T01:46:40;4.50;99.90
8856;DHT22;4464;50.882;4.730;2022-11-20T01:52:39;4.30;99.90
8856;DHT22;4464;50.882;4.730;2022-11-20T01:54:56;4.10;99.90
8856;DHT22;4464;50.882;4.730;2022-11-20T01:57:28;4.10;99.90
8856;DHT22;4464;50.882;4.730;2022-11-20T02:00:00;4.00;99.90
8856;DHT22;4464;50.882;4.730;2022-11-20T02:02:30;3.90;99.90
8856;DHT22;4464;50.882;4.730;2022-11-20T02:04:58;3.80;99.90
8856;DHT22;4464;50.882;4.730;2022-11-20T02:07:28;3.80;99.90
8856;DHT22;4464;50.882;4.730;2022-11-20T02:09:54;3.90;99.90
8856;DHT22;4464;50.882;4.730;2022-11-20T02:12:21;4.00;99.90
8856;DHT22;4464;50.882;4.730;2022-11-20T02:15:05;4.10;99.90
8856;DHT22;4464;50.882;4.730;2022-11-20T02:17:31;4.10;99.90
8856;DHT22;4464;50.882;4.730;2022-11-20T02:19:57;4.00;99.90
8856;DHT22;4464;50.882;4.730;2022-11-20T02:22:38;4.20;99.90
8856;DHT22;4464;50.882;4.730;2022-11-20T02:25:07;4.40;99.90
8856;DHT22;4464;50.882;4.730;2022-11-20T02:27:38;4.50;99.90
8856;DHT22;4464;50.882;4.730;2022-11-20T02:30:06;4.50;99.90
8856;DHT22;4464;50.882;4.730;2022-11-20T02:32:37;4.40;99.90
8856;DHT22;4464;50.882;4.730;2022-11-20T02:35:38;4.20;99.90
8856;DHT22;4464;50.882;4.730;2022-11-20T02:37:59;4.10;99.90
8856;DHT22;4464;50.882;4.730;2022-11-20T02:40:28;4.00;99.90
8856;DHT22;4464;50.882;4.730;2022-11-20T02:42:55;4.00;99.90
8856;DHT22;4464;50.882;4.730;2022-11-20T02:45:22;4.00;99.90
8856;DHT22;4464;50.882;4.730;2022-11-20T02:47:51;3.80;99.90
8856;DHT22;4464;50.882;4.730;2022-11-20T02:50:20;3.80;99.90
8856;DHT22;4464;50.882;4.730;2022-11-20T02:52:48;3.90;99.90
8856;DHT22;4464;50.882;4.730;2022-11-20T02:55:14;3.90;99.90
8856;DHT22;4464;50.882;4.730;2022-11-20T02:57:41;4.00;99.90
8856;DHT22;4464;50.882;4.730;2022-11-20T03:00:10;4.00;99.90
8856;DHT22;4464;50.882;4.730;2022-11-20T03:02:39;4.00;99.90
8856;DHT22;4464;50.882;4.730;2022-11-20T03:05:05;4.00;99.90
8856;DHT22;4464;50.882;4.730;2022-11-20T03:07:31;4.10;99.90
8856;DHT22;4464;50.882;4.730;2022-11-20T03:09:57;4.10;99.90
8856;DHT22;4464;50.882;4.730;2022-11-20T03:12:23;4.00;99.90
8856;DHT22;4464;50.882;4.730;2022-11-20T03:14:48;3.90;99.90
8856;DHT22;4464;50.882;4.730;2022-11-20T03:17:18;3.90;99.90
8856;DHT22;4464;50.882;4.730;2022-11-20T03:19:44;3.90;99.90
8856;DHT22;4464;50.882;4.730;2022-11-20T03:22:10;4.00;99.90
8856;DHT22;4464;50.882;4.730;2022-11-20T03:24:35;4.00;99.90
8856;DHT22;4464;50.882;4.730;2022-11-20T03:27:03;4.00;99.90
8856;DHT22;4464;50.882;4.730;2022-11-20T03:29:29;4.00;99.90
8856;DHT22;4464;50.882;4.730;2022-11-20T03:31:55;3.80;99.90
8856;DHT22;4464;50.882;4.730;2022-11-20T03:34:23;3.80;99.90
8856;DHT22;4464;50.882;4.730;2022-11-20T03:36:49;3.80;99.90
8856;DHT22;4464;50.882;4.730;2022-11-20T03:39:15;3.80;99.90
8856;DHT22;4464;50.882;4.730;2022-11-20T03:41:43;3.90;99.90
8856;DHT22;4464;50.882;4.730;2022-11-20T03:44:11;3.80;99.90
8856;DHT22;4464;50.882;4.730;2022-11-20T03:46:37;3.80;99.90
8856;DHT22;4464;50.882;4.730;2022-11-20T03:49:06;3.80;99.90
8856;DHT22;4464;50.882;4.730;2022-11-20T03:51:34;3.80;99.90
8856;DHT22;4464;50.882;4.730;2022-11-20T03:54:07;3.80;99.90
8856;DHT22;4464;50.882;4.730;2022-11-20T03:56:36;3.80;99.90
8856;DHT22;4464;50.882;4.730;2022-11-20T03:59:04;3.80;99.90
8856;DHT22;4464;50.882;4.730;2022-11-20T04:01:35;3.80;99.90
8856;DHT22;4464;50.882;4.730;2022-11-20T04:04:02;3.90;99.90
8856;DHT22;4464;50.882;4.730;2022-11-20T04:06:32;3.90;99.90
8856;DHT22;4464;50.882;4.730;2022-11-20T04:08:59;4.00;99.90
8856;DHT22;4464;50.882;4.730;2022-11-20T04:11:28;4.00;99.90
8856;DHT22;4464;50.882;4.730;2022-11-20T04:13:58;4.00;99.90
8856;DHT22;4464;50.882;4.730;2022-11-20T04:16:25;4.00;99.90
8856;DHT22;4464;50.882;4.730;2022-11-20T04:18:56;4.00;99.90
8856;DHT22;4464;50.882;4.730;2022-11-20T04:21:28;4.10;99.90
8856;DHT22;4464;50.882;4.730;2022-11-20T04:23:55;4.20;99.90
8856;DHT22;4464;50.882;4.730;2022-11-20T04:26:25;4.30;99.90
8856;DHT22;4464;50.882;4.730;2022-11-20T04:28:51;4.40;99.90
8856;DHT22;4464;50.882;4.730;2022-11-20T04:31:21;4.50;99.90
8856;DHT22;4464;50.882;4.730;2022-11-20T04:33:49;4.50;99.90
8856;DHT22;4464;50.882;4.730;2022-11-20T04:36:23;4.50;99.90
8856;DHT22;4464;50.882;4.730;2022-11-20T04:39:00;4.60;99.90
8856;DHT22;4464;50.882;4.730;2022-11-20T04:41:29;4.60;99.90
8856;DHT22;4464;50.882;4.730;2022-11-20T04:43:57;4.70;99.90
8856;DHT22;4464;50.882;4.730;2022-11-20T04:46:30;4.60;99.90
8856;DHT22;4464;50.882;4.730;2022-11-20T04:48:59;4.70;99.90
8856;DHT22;4464;50.882;4.730;2022-11-20T04:51:28;4.60;99.90
8856;DHT22;4464;50.882;4.730;2022-11-20T04:53:54;4.60;99.90
8856;DHT22;4464;50.882;4.730;2022-11-20T04:56:20;4.60;99.90
8856;DHT22;4464;50.882;4.730;2022-11-20T04:58:50;4.60;99.90
8856;DHT22;4464;50.882;4.730;2022-11-20T05:01:23;4.50;99.90
8856;DHT22;4464;50.882;4.730;2022-11-20T05:03:49;4.50;99.90
8856;DHT22;4464;50.882;4.730;2022-11-20T05:06:20;4.40;99.90
8856;DHT22;4464;50.882;4.730;2022-11-20T05:08:46;4.40;99.90
8856;DHT22;4464;50.882;4.730;2022-11-20T05:11:18;4.40;99.90
8856;DHT22;4464;50.882;4.730;2022-11-20T05:13:44;4.50;99.90
8856;DHT22;4464;50.882;4.730;2022-11-20T05:16:18;4.50;99.90
8856;DHT22;4464;50.882;4.730;2022-11-20T05:18:45;4.40;99.90
8856;DHT22;4464;50.882;4.730;2022-11-20T05:21:11;4.50;99.90
8856;DHT22;4464;50.882;4.730;2022-11-20T05:23:40;4.60;99.90
8856;DHT22;4464;50.882;4.730;2022-11-20T05:26:08;4.70;99.90
8856;DHT22;4464;50.882;4.730;2022-11-20T05:28:34;4.70;99.90
8856;DHT22;4464;50.882;4.730;2022-11-20T05:31:06;4.70;99.90
8856;DHT22;4464;50.882;4.730;2022-11-20T05:33:33;4.70;99.90
8856;DHT22;4464;50.882;4.730;2022-11-20T05:36:03;4.70;99.90
8856;DHT22;4464;50.882;4.730;2022-11-20T05:38:30;4.70;99.90
8856;DHT22;4464;50.882;4.730;2022-11-20T05:41:13;4.70;99.90
8856;DHT22;4464;50.882;4.730;2022-11-20T05:43:40;4.70;99.90
8856;DHT22;4464;50.882;4.730;2022-11-20T05:46:08;4.70;99.90
8856;DHT22;4464;50.882;4.730;2022-11-20T05:48:35;4.70;99.90
8856;DHT22;4464;50.882;4.730;2022-11-20T05:51:03;4.80;99.90
8856;DHT22;4464;50.882;4.730;2022-11-20T05:53:35;4.70;99.90
8856;DHT22;4464;50.882;4.730;2022-11-20T05:56:09;4.70;99.90
8856;DHT22;4464;50.882;4.730;2022-11-20T05:58:35;4.80;99.90
8856;DHT22;4464;50.882;4.730;2022-11-20T06:01:09;4.80;99.90
8856;DHT22;4464;50.882;4.730;2022-11-20T06:03:39;4.90;99.90
8856;DHT22;4464;50.882;4.730;2022-11-20T06:06:06;4.90;99.90
8856;DHT22;4464;50.882;4.730;2022-11-20T06:08:35;4.90;99.90
8856;DHT22;4464;50.882;4.730;2022-11-20T06:11:05;4.90;99.90
8856;DHT22;4464;50.882;4.730;2022-11-20T06:13:32;4.80;99.90
8856;DHT22;4464;50.882;4.730;2022-11-20T06:15:58;4.80;99.90
8856;DHT22;4464;50.882;4.730;2022-11-20T06:18:28;4.70;99.90
8856;DHT22;4464;50.882;4.730;2022-11-20T06:21:04;4.70;99.90
8856;DHT22;4464;50.882;4.730;2022-11-20T06:23:33;4.50;99.90
8856;DHT22;4464;50.882;4.730;2022-11-20T06:26:07;4.50;99.90
8856;DHT22;4464;50.882;4.730;2022-11-20T06:28:54;4.50;99.90
8856;DHT22;4464;50.882;4.730;2022-11-20T06:31:23;4.50;99.90
8856;DHT22;4464;50.882;4.730;2022-11-20T06:33:50;4.60;99.90
8856;DHT22;4464;50.882;4.730;2022-11-20T06:36:21;4.70;99.90
8856;DHT22;4464;50.882;4.730;2022-11-20T06:38:52;4.60;99.90
8856;DHT22;4464;50.882;4.730;2022-11-20T06:41:20;4.70;99.90
8856;DHT22;4464;50.882;4.730;2022-11-20T06:43:49;4.70;99.90
8856;DHT22;4464;50.882;4.730;2022-11-20T06:46:16;4.60;99.90
8856;DHT22;4464;50.882;4.730;2022-11-20T06:48:43;4.60;99.90
8856;DHT22;4464;50.882;4.730;2022-11-20T06:51:09;4.60;99.90
8856;DHT22;4464;50.882;4.730;2022-11-20T06:53:36;4.60;99.90
8856;DHT22;4464;50.882;4.730;2022-11-20T06:56:05;4.60;99.90
8856;DHT22;4464;50.882;4.730;2022-11-20T06:58:32;4.70;99.90
8856;DHT22;4464;50.882;4.730;2022-11-20T07:01:02;4.80;99.90
8856;DHT22;4464;50.882;4.730;2022-11-20T07:03:37;4.80;99.90
8856;DHT22;4464;50.882;4.730;2022-11-20T07:06:04;4.70;99.90
8856;DHT22;4464;50.882;4.730;2022-11-20T07:08:33;4.70;99.90
8856;DHT22;4464;50.882;4.730;2022-11-20T07:11:01;4.90;99.90
8856;DHT22;4464;50.882;4.730;2022-11-20T07:13:32;4.70;99.90
8856;DHT22;4464;50.882;4.730;2022-11-20T07:16:04;4.70;99.90
8856;DHT22;4464;50.882;4.730;2022-11-20T07:18:32;4.70;99.90
8856;DHT22;4464;50.882;4.730;2022-11-20T07:21:06;4.60;99.90
8856;DHT22;4464;50.882;4.730;2022-11-20T07:23:32;4.60;99.90
8856;DHT22;4464;50.882;4.730;2022-11-20T07:26:02;4.60;99.90
8856;DHT22;4464;50.882;4.730;2022-11-20T07:28:28;4.70;99.90
8856;DHT22;4464;50.882;4.730;2022-11-20T07:30:53;4.70;99.90
8856;DHT22;4464;50.882;4.730;2022-11-20T07:33:23;4.80;99.90
8856;DHT22;4464;50.882;4.730;2022-11-20T07:35:48;4.90;99.90
8856;DHT22;4464;50.882;4.730;2022-11-20T07:38:14;4.90;99.90
8856;DHT22;4464;50.882;4.730;2022-11-20T07:40:40;5.00;99.90
8856;DHT22;4464;50.882;4.730;2022-11-20T07:43:07;5.00;99.90
8856;DHT22;4464;50.882;4.730;2022-11-20T07:45:34;5.10;99.90
8856;DHT22;4464;50.882;4.730;2022-11-20T07:48:01;5.10;99.90
8856;DHT22;4464;50.882;4.730;2022-11-20T07:50:29;5.10;99.90
8856;DHT22;4464;50.882;4.730;2022-11-20T07:53:04;5.20;99.90
8856;DHT22;4464;50.882;4.730;2022-11-20T07:55:34;5.20;99.90
8856;DHT22;4464;50.882;4.730;2022-11-20T07:58:05;5.20;99.90
8856;DHT22;4464;50.882;4.730;2022-11-20T08:00:31;5.30;99.90
8856;DHT22;4464;50.882;4.730;2022-11-20T08:02:59;5.40;99.90
8856;DHT22;4464;50.882;4.730;2022-11-20T08:05:30;5.40;99.90
8856;DHT22;4464;50.882;4.730;2022-11-20T08:07:58;5.50;99.90
8856;DHT22;4464;50.882;4.730;2022-11-20T08:10:24;5.60;99.90
8856;DHT22;4464;50.882;4.730;2022-11-20T08:12:55;5.60;99.90
8856;DHT22;4464;50.882;4.730;2022-11-20T08:15:48;5.80;99.90
8856;DHT22;4464;50.882;4.730;2022-11-20T08:18:15;5.80;99.90
8856;DHT22;4464;50.882;4.730;2022-11-20T08:20:44;5.80;99.90
8856;DHT22;4464;50.882;4.730;2022-11-20T08:23:10;5.90;99.90
8856;DHT22;4464;50.882;4.730;2022-11-20T08:25:37;5.90;99.90
8856;DHT22;4464;50.882;4.730;2022-11-20T08:28:05;6.00;99.90
8856;DHT22;4464;50.882;4.730;2022-11-20T08:30:34;5.90;99.90
8856;DHT22;4464;50.882;4.730;2022-11-20T08:33:06;5.80;99.90
8856;DHT22;4464;50.882;4.730;2022-11-20T08:35:34;5.90;99.90
8856;DHT22;4464;50.882;4.730;2022-11-20T08:38:01;6.00;99.90
8856;DHT22;4464;50.882;4.730;2022-11-20T08:40:32;6.10;99.90
8856;DHT22;4464;50.882;4.730;2022-11-20T08:42:58;6.20;99.90
8856;DHT22;4464;50.882;4.730;2022-11-20T08:45:24;6.30;99.90
8856;DHT22;4464;50.882;4.730;2022-11-20T08:47:52;6.30;99.90
8856;DHT22;4464;50.882;4.730;2022-11-20T08:50:18;6.40;99.90
8856;DHT22;4464;50.882;4.730;2022-11-20T08:52:44;6.50;99.90
8856;DHT22;4464;50.882;4.730;2022-11-20T08:55:12;6.40;99.90
8856;DHT22;4464;50.882;4.730;2022-11-20T08:57:41;6.50;99.90
8856;DHT22;4464;50.882;4.730;2022-11-20T09:00:07;6.60;99.90
8856;DHT22;4464;50.882;4.730;2022-11-20T09:02:33;6.50;99.90
8856;DHT22;4464;50.882;4.730;2022-11-20T09:05:04;6.70;99.90
8856;DHT22;4464;50.882;4.730;2022-11-20T09:07:30;6.60;99.90
8856;DHT22;4464;50.882;4.730;2022-11-20T09:09:57;6.60;99.90
8856;DHT22;4464;50.882;4.730;2022-11-20T09:12:23;6.60;99.90
8856;DHT22;4464;50.882;4.730;2022-11-20T09:14:49;6.70;99.90
8856;DHT22;4464;50.882;4.730;2022-11-20T09:17:19;6.70;99.90
8856;DHT22;4464;50.882;4.730;2022-11-20T09:19:45;6.60;99.90
8856;DHT22;4464;50.882;4.730;2022-11-20T09:22:12;6.60;99.90
8856;DHT22;4464;50.882;4.730;2022-11-20T09:24:40;6.60;99.90
8856;DHT22;4464;50.882;4.730;2022-11-20T09:27:08;6.60;99.90
8856;DHT22;4464;50.882;4.730;2022-11-20T09:29:33;6.70;99.90
8856;DHT22;4464;50.882;4.730;2022-11-20T09:32:01;6.70;99.90
8856;DHT22;4464;50.882;4.730;2022-11-20T09:34:27;6.90;99.90
8856;DHT22;4464;50.882;4.730;2022-11-20T09:36:56;6.90;99.90
8856;DHT22;4464;50.882;4.730;2022-11-20T09:39:22;7.00;99.90
8856;DHT22;4464;50.882;4.730;2022-11-20T09:42:21;7.00;99.90
8856;DHT22;4464;50.882;4.730;2022-11-20T09:45:05;7.10;99.90
8856;DHT22;4464;50.882;4.730;2022-11-20T09:47:52;7.10;99.90
8856;DHT22;4464;50.882;4.730;2022-11-20T09:50:30;7.20;99.90
8856;DHT22;4464;50.882;4.730;2022-11-20T09:55:29;7.30;99.90
8856;DHT22;4464;50.882;4.730;2022-11-20T09:57:57;7.40;99.90
8856;DHT22;4464;50.882;4.730;2022-11-20T10:00:24;7.30;99.90
8856;DHT22;4464;50.882;4.730;2022-11-20T10:03:14;7.40;99.90
8856;DHT22;4464;50.882;4.730;2022-11-20T10:05:46;7.30;99.90
8856;DHT22;4464;50.882;4.730;2022-11-20T10:08:17;7.40;99.90
8856;DHT22;4464;50.882;4.730;2022-11-20T10:10:49;7.50;99.90
8856;DHT22;4464;50.882;4.730;2022-11-20T10:13:31;7.60;99.90
8856;DHT22;4464;50.882;4.730;2022-11-20T10:29:19;8.00;99.90
8856;DHT22;4464;50.882;4.730;2022-11-20T10:32:02;8.00;99.90
8856;DHT22;4464;50.882;4.730;2022-11-20T10:34:52;8.00;99.90
8856;DHT22;4464;50.882;4.730;2022-11-20T10:37:25;8.10;99.90
8856;DHT22;4464;50.882;4.730;2022-11-20T10:40:30;8.10;99.90
8856;DHT22;4464;50.882;4.730;2022-11-20T10:43:21;8.20;99.90
8856;DHT22;4464;50.882;4.730;2022-11-20T10:46:20;8.30;99.90
8856;DHT22;4464;50.882;4.730;2022-11-20T10:48:48;8.40;99.90
8856;DHT22;4464;50.882;4.730;2022-11-20T10:56:46;8.60;99.90
8856;DHT22;4464;50.882;4.730;2022-11-20T11:05:23;9.10;99.90
8856;DHT22;4464;50.882;4.730;2022-11-20T11:07:54;9.20;99.90
8856;DHT22;4464;50.882;4.730;2022-11-20T11:10:32;9.40;99.90
8856;DHT22;4464;50.882;4.730;2022-11-20T11:13:00;9.50;99.90
8856;DHT22;4464;50.882;4.730;2022-11-20T11:15:29;9.70;99.90
8856;DHT22;4464;50.882;4.730;2022-11-20T11:17:56;9.60;99.90
8856;DHT22;4464;50.882;4.730;2022-11-20T11:20:26;9.80;99.90
8856;DHT22;4464;50.882;4.730;2022-11-20T11:22:54;10.00;99.90
8856;DHT22;4464;50.882;4.730;2022-11-20T11:27:53;9.70;99.90
8856;DHT22;4464;50.882;4.730;2022-11-20T11:30:26;9.60;99.90
8856;DHT22;4464;50.882;4.730;2022-11-20T11:33:03;9.50;99.90
8856;DHT22;4464;50.882;4.730;2022-11-20T11:35:29;9.60;99.90
8856;DHT22;4464;50.882;4.730;2022-11-20T11:38:07;9.70;99.90
8856;DHT22;4464;50.882;4.730;2022-11-20T11:40:36;9.60;99.90
8856;DHT22;4464;50.882;4.730;2022-11-20T11:43:06;9.60;99.90
8856;DHT22;4464;50.882;4.730;2022-11-20T11:45:55;9.70;99.90
8856;DHT22;4464;50.882;4.730;2022-11-20T11:48:21;9.60;99.90
8856;DHT22;4464;50.882;4.730;2022-11-20T11:50:53;9.50;99.90
8856;DHT22;4464;50.882;4.730;2022-11-20T11:53:23;9.50;99.90
8856;DHT22;4464;50.882;4.730;2022-11-20T11:56:02;9.50;99.90
8856;DHT22;4464;50.882;4.730;2022-11-20T12:04:40;9.60;99.90
8856;DHT22;4464;50.882;4.730;2022-11-20T12:09:52;9.50;99.90
8856;DHT22;4464;50.882;4.730;2022-11-20T12:12:32;9.50;99.90
8856;DHT22;4464;50.882;4.730;2022-11-20T12:15:01;9.40;99.90
8856;DHT22;4464;50.882;4.730;2022-11-20T12:17:28;9.30;99.90
8856;DHT22;4464;50.882;4.730;2022-11-20T12:19:56;9.30;99.90
8856;DHT22;4464;50.882;4.730;2022-11-20T12:23:25;9.30;99.90
8856;DHT22;4464;50.882;4.730;2022-11-20T12:25:27;9.20;99.90
8856;DHT22;4464;50.882;4.730;2022-11-20T12:30:33;9.00;99.90
8856;DHT22;4464;50.882;4.730;2022-11-20T12:33:33;8.90;99.90
8856;DHT22;4464;50.882;4.730;2022-11-20T12:36:06;8.80;99.90
8856;DHT22;4464;50.882;4.730;2022-11-20T12:41:41;8.60;99.90
8856;DHT22;4464;50.882;4.730;2022-11-20T12:58:29;8.10;99.90
8856;DHT22;4464;50.882;4.730;2022-11-20T13:06:50;8.00;99.90
8856;DHT22;4464;50.882;4.730;2022-11-20T13:09:19;8.00;99.90
8856;DHT22;4464;50.882;4.730;2022-11-20T13:12:02;8.00;99.90
8856;DHT22;4464;50.882;4.730;2022-11-20T13:14:53;8.00;99.90
8856;DHT22;4464;50.882;4.730;2022-11-20T13:17:36;8.10;99.90
8856;DHT22;4464;50.882;4.730;2022-11-20T13:20:12;8.00;99.90
8856;DHT22;4464;50.882;4.730;2022-11-20T13:22:49;8.10;99.90
8856;DHT22;4464;50.882;4.730;2022-11-20T13:25:31;8.10;99.90
8856;DHT22;4464;50.882;4.730;2022-11-20T13:27:59;8.10;99.90
8856;DHT22;4464;50.882;4.730;2022-11-20T13:30:31;8.10;99.90
8856;DHT22;4464;50.882;4.730;2022-11-20T13:33:07;8.10;99.90
8856;DHT22;4464;50.882;4.730;2022-11-20T13:35:41;8.10;99.90
8856;DHT22;4464;50.882;4.730;2022-11-20T13:38:14;8.10;99.90
8856;DHT22;4464;50.882;4.730;2022-11-20T13:40:55;8.00;99.90
8856;DHT22;4464;50.882;4.730;2022-11-20T13:43:35;8.10;99.90
8856;DHT22;4464;50.882;4.730;2022-11-20T13:46:05;8.00;99.90
8856;DHT22;4464;50.882;4.730;2022-11-20T13:48:43;8.00;99.90
8856;DHT22;4464;50.882;4.730;2022-11-20T14:00:07;7.90;99.90
8856;DHT22;4464;50.882;4.730;2022-11-20T14:02:36;7.90;99.90
8856;DHT22;4464;50.882;4.730;2022-11-20T14:05:03;7.90;99.90
8856;DHT22;4464;50.882;4.730;2022-11-20T14:07:40;7.90;99.90
8856;DHT22;4464;50.882;4.730;2022-11-20T14:10:28;7.90;99.90
8856;DHT22;4464;50.882;4.730;2022-11-20T14:12:54;7.90;99.90
8856;DHT22;4464;50.882;4.730;2022-11-20T14:15:32;7.90;99.90
8856;DHT22;4464;50.882;4.730;2022-11-20T14:17:59;7.90;99.90
8856;DHT22;4464;50.882;4.730;2022-11-20T14:20:29;7.90;99.90
8856;DHT22;4464;50.882;4.730;2022-11-20T14:22:56;7.90;99.90
8856;DHT22;4464;50.882;4.730;2022-11-20T14:25:25;8.00;99.90
8856;DHT22;4464;50.882;4.730;2022-11-20T14:28:00;8.00;99.90
8856;DHT22;4464;50.882;4.730;2022-11-20T14:33:11;8.00;99.90
8856;DHT22;4464;50.882;4.730;2022-11-20T14:35:50;8.00;99.90
8856;DHT22;4464;50.882;4.730;2022-11-20T14:38:31;7.90;99.90
8856;DHT22;4464;50.882;4.730;2022-11-20T14:41:14;7.90;99.90
8856;DHT22;4464;50.882;4.730;2022-11-20T14:43:45;7.90;99.90
8856;DHT22;4464;50.882;4.730;2022-11-20T14:46:14;7.90;99.90
8856;DHT22;4464;50.882;4.730;2022-11-20T14:48:47;7.90;99.90
8856;DHT22;4464;50.882;4.730;2022-11-20T14:51:37;7.90;99.90
8856;DHT22;4464;50.882;4.730;2022-11-20T14:54:18;7.90;99.90
8856;DHT22;4464;50.882;4.730;2022-11-20T14:57:03;7.90;99.90
8856;DHT22;4464;50.882;4.730;2022-11-20T14:59:32;7.90;99.90
8856;DHT22;4464;50.882;4.730;2022-11-20T15:02:04;8.00;99.90
8856;DHT22;4464;50.882;4.730;2022-11-20T15:04:31;7.90;99.90
8856;DHT22;4464;50.882;4.730;2022-11-20T15:06:58;8.00;99.90
8856;DHT22;4464;50.882;4.730;2022-11-20T15:09:26;8.00;99.90
8856;DHT22;4464;50.882;4.730;2022-11-20T15:11:58;8.00;99.90
8856;DHT22;4464;50.882;4.730;2022-11-20T15:14:25;8.00;99.90
8856;DHT22;4464;50.882;4.730;2022-11-20T15:16:53;8.00;99.90
8856;DHT22;4464;50.882;4.730;2022-11-20T15:19:21;8.00;99.90
8856;DHT22;4464;50.882;4.730;2022-11-20T15:21:47;8.00;99.90
8856;DHT22;4464;50.882;4.730;2022-11-20T15:24:16;8.00;99.90
8856;DHT22;4464;50.882;4.730;2022-11-20T15:26:42;8.00;99.90
8856;DHT22;4464;50.882;4.730;2022-11-20T15:29:12;8.00;99.90
8856;DHT22;4464;50.882;4.730;2022-11-20T15:31:39;8.00;99.90
8856;DHT22;4464;50.882;4.730;2022-11-20T15:34:16;8.00;99.90
8856;DHT22;4464;50.882;4.730;2022-11-20T15:36:44;8.00;99.90
8856;DHT22;4464;50.882;4.730;2022-11-20T15:39:09;8.00;99.90
8856;DHT22;4464;50.882;4.730;2022-11-20T15:41:39;8.10;99.90
8856;DHT22;4464;50.882;4.730;2022-11-20T15:44:05;8.10;99.90
8856;DHT22;4464;50.882;4.730;2022-11-20T15:46:35;8.10;99.90
8856;DHT22;4464;50.882;4.730;2022-11-20T15:49:06;8.20;99.90
8856;DHT22;4464;50.882;4.730;2022-11-20T15:51:39;8.20;99.90
8856;DHT22;4464;50.882;4.730;2022-11-20T15:54:14;8.20;99.90
8856;DHT22;4464;50.882;4.730;2022-11-20T15:56:41;8.30;99.90
8856;DHT22;4464;50.882;4.730;2022-11-20T15:59:11;8.30;99.90
8856;DHT22;4464;50.882;4.730;2022-11-20T16:01:42;8.30;99.90
8856;DHT22;4464;50.882;4.730;2022-11-20T16:04:14;8.40;99.90
8856;DHT22;4464;50.882;4.730;2022-11-20T16:06:40;8.40;99.90
8856;DHT22;4464;50.882;4.730;2022-11-20T16:09:08;8.40;99.90
8856;DHT22;4464;50.882;4.730;2022-11-20T16:11:35;8.40;99.90
8856;DHT22;4464;50.882;4.730;2022-11-20T16:14:10;8.40;99.90
8856;DHT22;4464;50.882;4.730;2022-11-20T16:16:54;8.40;99.90
8856;DHT22;4464;50.882;4.730;2022-11-20T16:19:20;8.40;99.90
8856;DHT22;4464;50.882;4.730;2022-11-20T16:21:48;8.40;99.90
8856;DHT22;4464;50.882;4.730;2022-11-20T16:24:15;8.40;99.90
8856;DHT22;4464;50.882;4.730;2022-11-20T16:26:41;8.40;99.90
8856;DHT22;4464;50.882;4.730;2022-11-20T16:29:07;8.40;99.90
8856;DHT22;4464;50.882;4.730;2022-11-20T16:31:36;8.40;99.90
8856;DHT22;4464;50.882;4.730;2022-11-20T16:34:04;8.30;99.90
8856;DHT22;4464;50.882;4.730;2022-11-20T16:36:31;8.30;99.90
8856;DHT22;4464;50.882;4.730;2022-11-20T16:39:00;8.30;99.90
8856;DHT22;4464;50.882;4.730;2022-11-20T16:41:27;8.30;99.90
8856;DHT22;4464;50.882;4.730;2022-11-20T16:43:56;8.30;99.90
8856;DHT22;4464;50.882;4.730;2022-11-20T16:46:30;8.30;99.90
8856;DHT22;4464;50.882;4.730;2022-11-20T16:49:08;8.30;99.90
8856;DHT22;4464;50.882;4.730;2022-11-20T16:51:36;8.30;99.90
8856;DHT22;4464;50.882;4.730;2022-11-20T16:54:03;8.30;99.90
8856;DHT22;4464;50.882;4.730;2022-11-20T16:56:33;8.40;99.90
8856;DHT22;4464;50.882;4.730;2022-11-20T16:59:00;8.40;99.90
8856;DHT22;4464;50.882;4.730;2022-11-20T17:01:29;8.50;99.90
8856;DHT22;4464;50.882;4.730;2022-11-20T17:03:59;8.50;99.90
8856;DHT22;4464;50.882;4.730;2022-11-20T17:06:30;8.50;99.90
8856;DHT22;4464;50.882;4.730;2022-11-20T17:08:57;8.50;99.90
8856;DHT22;4464;50.882;4.730;2022-11-20T17:11:24;8.50;99.90
8856;DHT22;4464;50.882;4.730;2022-11-20T17:13:51;8.50;99.90
8856;DHT22;4464;50.882;4.730;2022-11-20T17:16:22;8.60;99.90
8856;DHT22;4464;50.882;4.730;2022-11-20T17:18:48;8.50;99.90
8856;DHT22;4464;50.882;4.730;2022-11-20T17:21:18;8.50;99.90
8856;DHT22;4464;50.882;4.730;2022-11-20T17:23:45;8.50;99.90
8856;DHT22;4464;50.882;4.730;2022-11-20T17:26:17;8.50;99.90
8856;DHT22;4464;50.882;4.730;2022-11-20T17:28:45;8.50;99.90
8856;DHT22;4464;50.882;4.730;2022-11-20T17:31:14;8.50;99.90
8856;DHT22;4464;50.882;4.730;2022-11-20T17:33:42;8.50;99.90
8856;DHT22;4464;50.882;4.730;2022-11-20T17:36:09;8.40;99.90
8856;DHT22;4464;50.882;4.730;2022-11-20T17:38:36;8.40;99.90
8856;DHT22;4464;50.882;4.730;2022-11-20T17:41:16;8.40;99.90
8856;DHT22;4464;50.882;4.730;2022-11-20T17:43:43;8.40;99.90
8856;DHT22;4464;50.882;4.730;2022-11-20T17:46:10;8.40;99.90
8856;DHT22;4464;50.882;4.730;2022-11-20T17:48:36;8.40;99.90
8856;DHT22;4464;50.882;4.730;2022-11-20T17:51:07;8.30;99.90
8856;DHT22;4464;50.882;4.730;2022-11-20T17:53:43;8.30;99.90
8856;DHT22;4464;50.882;4.730;2022-11-20T17:56:09;8.20;99.90
8856;DHT22;4464;50.882;4.730;2022-11-20T17:58:54;8.10;99.90
8856;DHT22;4464;50.882;4.730;2022-11-20T18:01:20;8.10;99.90